Time;durP1;ratioP1;P1;durP2;ratioP2;P2;SDS_P1;SDS_P2;PMS_P1;PMS_P2;Temp;Humidity;BMP_temperature;BMP_pressure;BME280_temperature;BME280_humidity;BME280_pressure;Samples;Min_cycle;Max_cycle;Signal;HPM_P1;HPM_P2
2023/01/09 00:00:57;;;;;;;14.10;9.20;;;;;;;2.82;100.00;99385.13;5041810;28;20211;-70
2023/01/09 00:03:23;;;;;;;14.37;8.97;;;;;;;2.85;100.00;99377.34;5046343;28;20206;-70
2023/01/09 00:05:49;;;;;;;15.63;9.10;;;;;;;2.87;100.00;99380.75;5045701;28;20206;-70
2023/01/09 00:08:17;;;;;;;13.53;8.93;;;;;;;2.86;100.00;99371.31;5045318;28;20210;-70
2023/01/09 00:10:43;;;;;;;14.57;9.20;;;;;;;2.88;100.00;99376.44;5044331;28;20786;-70
2023/01/09 00:13:11;;;;;;;15.93;9.63;;;;;;;2.88;100.00;99368.72;5041505;28;20571;-70
2023/01/09 00:15:38;;;;;;;16.40;8.93;;;;;;;2.90;100.00;99369.53;5041695;28;20199;-70
2023/01/09 00:18:05;;;;;;;15.70;9.43;;;;;;;2.91;100.00;99369.53;5043732;28;20199;-70
2023/01/09 00:20:32;;;;;;;15.00;8.93;;;;;;;2.92;100.00;99375.53;5044797;28;20790;-70
2023/01/09 00:22:59;;;;;;;18.43;10.03;;;;;;;2.93;100.00;99366.94;5041537;28;20199;-70
2023/01/09 00:25:25;;;;;;;15.57;8.97;;;;;;;2.97;100.00;99363.44;5040381;28;20286;-70
2023/01/09 00:27:52;;;;;;;13.83;8.63;;;;;;;2.97;100.00;99359.16;5038561;28;20217;-70
2023/01/09 00:30:19;;;;;;;17.40;9.23;;;;;;;2.95;100.00;99363.44;5039749;28;20219;-70
2023/01/09 00:32:45;;;;;;;14.47;9.47;;;;;;;2.97;100.00;99356.56;5044404;28;20200;-70
2023/01/09 00:35:16;;;;;;;20.53;9.53;;;;;;;3.00;100.00;99351.34;5041745;28;20207;-70
2023/01/09 00:37:42;;;;;;;14.73;9.03;;;;;;;3.01;100.00;99349.66;5038612;28;20196;-70
2023/01/09 00:40:11;;;;;;;16.83;9.80;;;;;;;3.03;100.00;99342.75;5037994;28;20216;-70
2023/01/09 00:42:38;;;;;;;20.33;9.40;;;;;;;3.04;100.00;99344.44;5042061;28;20203;-70
2023/01/09 00:45:09;;;;;;;13.13;8.13;;;;;;;3.03;100.00;99343.59;5036220;28;20207;-70
2023/01/09 00:47:41;;;;;;;14.33;9.17;;;;;;;3.05;100.00;99327.28;5042422;28;20207;-70
2023/01/09 00:50:12;;;;;;;15.27;9.43;;;;;;;3.06;100.00;99321.22;5039470;28;20235;-70
2023/01/09 00:52:42;;;;;;;15.00;8.33;;;;;;;3.06;100.00;99322.09;5039878;28;20672;-70
2023/01/09 00:55:09;;;;;;;15.47;9.30;;;;;;;3.10;100.00;99320.34;5040746;28;20208;-70
2023/01/09 00:57:36;;;;;;;16.30;9.13;;;;;;;3.09;100.00;99311.72;5028446;28;20217;-70
2023/01/09 01:00:03;;;;;;;17.07;9.90;;;;;;;3.08;100.00;99306.59;5038840;28;20251;-70
2023/01/09 01:02:30;;;;;;;15.80;8.20;;;;;;;3.12;100.00;99323.72;5036676;28;20311;-70
2023/01/09 01:07:56;;;;;;;13.73;8.57;;;;;;;3.06;100.00;99314.38;4964523;28;20271;-70
2023/01/09 01:10:24;;;;;;;15.73;8.90;;;;;;;3.00;100.00;99304.16;4961705;28;20971;-70
2023/01/09 01:12:51;;;;;;;15.33;8.93;;;;;;;2.97;100.00;99312.81;4998610;28;20215;-70
2023/01/09 01:15:19;;;;;;;16.60;8.83;;;;;;;2.94;100.00;99297.41;5035897;28;20207;-70
2023/01/09 01:17:45;;;;;;;14.37;8.63;;;;;;;2.95;100.00;99299.06;5042939;28;20263;-70
2023/01/09 01:20:15;;;;;;;12.63;8.23;;;;;;;2.97;100.00;99288.75;5039346;28;20295;-70
2023/01/09 01:22:42;;;;;;;13.63;8.77;;;;;;;2.95;100.00;99291.34;5041763;28;20218;-70
2023/01/09 01:25:11;;;;;;;13.50;8.47;;;;;;;2.96;100.00;99292.22;5039897;28;20755;-70
2023/01/09 01:27:37;;;;;;;16.83;8.77;;;;;;;2.92;100.00;99296.56;5043544;28;20223;-70
2023/01/09 01:30:05;;;;;;;14.60;7.67;;;;;;;2.95;100.00;99293.09;5040550;28;20220;-70
2023/01/09 01:32:32;;;;;;;16.87;8.30;;;;;;;2.90;100.00;99290.56;5040028;28;20655;-70
2023/01/09 01:34:58;;;;;;;18.03;8.70;;;;;;;2.89;100.00;99283.75;5037534;28;20200;-70
2023/01/09 01:37:26;;;;;;;11.47;7.83;;;;;;;2.93;100.00;99277.66;5038581;28;20574;-70
2023/01/09 01:39:53;;;;;;;14.73;8.17;;;;;;;2.92;100.00;99280.25;5024884;28;20300;-70
2023/01/09 01:42:21;;;;;;;16.73;8.17;;;;;;;2.90;100.00;99276.84;5042662;28;20202;-70
2023/01/09 01:45:01;;;;;;;13.20;7.90;;;;;;;2.88;100.00;99273.47;5041060;28;20559;-70
2023/01/09 01:47:33;;;;;;;15.33;8.37;;;;;;;2.89;100.00;99262.31;5037997;28;20211;-70
2023/01/09 01:50:03;;;;;;;11.30;7.93;;;;;;;2.89;100.00;99265.72;5039842;28;20226;-70
2023/01/09 01:52:31;;;;;;;13.93;8.33;;;;;;;2.88;100.00;99263.16;5040326;28;20616;-70
2023/01/09 01:54:58;;;;;;;14.50;8.03;;;;;;;2.87;100.00;99253.72;5040850;28;20207;-70
2023/01/09 01:57:26;;;;;;;15.17;8.43;;;;;;;2.90;100.00;99249.38;5038339;28;20563;-70
2023/01/09 01:59:56;;;;;;;15.60;7.43;;;;;;;2.90;100.00;99248.53;5039409;28;20223;-70
2023/01/09 02:02:27;;;;;;;12.93;7.97;;;;;;;2.92;100.00;99249.34;5036389;28;20199;-70
2023/01/09 02:04:55;;;;;;;14.40;8.37;;;;;;;2.91;100.00;99245.94;5035670;28;20207;-70
2023/01/09 02:07:22;;;;;;;16.33;8.47;;;;;;;2.94;100.00;99243.31;5035969;28;20211;-70
2023/01/09 02:09:48;;;;;;;16.27;8.40;;;;;;;2.94;100.00;99239.91;5037003;28;20644;-70
2023/01/09 02:12:18;;;;;;;15.07;7.83;;;;;;;2.97;100.00;99234.69;5042502;28;20199;-70
2023/01/09 02:14:47;;;;;;;12.83;8.10;;;;;;;2.99;100.00;99236.38;5041701;28;20191;-70
2023/01/09 02:17:24;;;;;;;15.87;8.70;;;;;;;3.04;100.00;99231.13;5041593;28;20222;-70
2023/01/09 02:20:22;;;;;;;14.37;8.03;;;;;;;3.06;100.00;99238.81;5040490;28;20226;-70
2023/01/09 02:23:00;;;;;;;12.70;7.93;;;;;;;3.11;100.00;99237.03;5042207;28;20203;-70
2023/01/09 02:25:48;;;;;;;14.83;8.00;;;;;;;3.17;100.00;99231.78;5040725;28;20203;-70
2023/01/09 02:28:39;;;;;;;13.40;7.80;;;;;;;3.22;100.00;99228.22;5021901;28;20226;-70
2023/01/09 02:31:13;;;;;;;15.37;8.27;;;;;;;3.27;100.00;99224.72;5040397;28;20191;-70
2023/01/09 02:33:47;;;;;;;15.73;8.47;;;;;;;3.32;100.00;99230.63;5041650;28;20197;-70
2023/01/09 02:36:22;;;;;;;12.70;8.07;;;;;;;3.39;100.00;99221.91;5045638;28;20202;-70
2023/01/09 02:38:59;;;;;;;15.97;8.40;;;;;;;3.41;100.00;99225.28;5044264;28;20202;-70
2023/01/09 02:41:36;;;;;;;12.13;7.03;;;;;;;3.47;100.00;99219.19;5044118;28;20192;-70
2023/01/09 02:44:14;;;;;;;11.77;7.13;;;;;;;3.50;100.00;99212.25;5022267;28;20886;-70
2023/01/09 02:46:42;;;;;;;15.30;8.13;;;;;;;3.55;100.00;99205.28;5039697;28;20195;-70
2023/01/09 02:49:09;;;;;;;11.73;7.60;;;;;;;3.60;100.00;99208.59;5041188;28;20230;-70
2023/01/09 02:51:41;;;;;;;13.27;7.77;;;;;;;3.62;100.00;99213.72;5031364;28;20199;-70
2023/01/09 02:54:21;;;;;;;13.63;7.63;;;;;;;3.65;100.00;99212.81;5033637;28;20682;-70
2023/01/09 02:57:03;;;;;;;12.47;7.43;;;;;;;3.70;100.00;99211.00;5042668;28;20231;-70
2023/01/09 02:59:36;;;;;;;13.93;7.80;;;;;;;3.71;100.00;99208.38;5043457;28;20227;-70
2023/01/09 03:02:17;;;;;;;14.80;7.23;;;;;;;3.78;100.00;99206.50;5038804;28;20219;-70
2023/01/09 03:04:58;;;;;;;12.93;7.57;;;;;;;3.84;100.00;99206.41;5039487;28;20200;-70
2023/01/09 03:07:30;;;;;;;13.73;7.00;;;;;;;3.88;100.00;99199.44;5032435;28;20214;-70
2023/01/09 03:10:08;;;;;;;13.60;6.97;;;;;;;3.94;100.00;99207.03;5044690;28;20246;-70
2023/01/09 03:12:36;;;;;;;13.40;7.23;;;;;;;3.96;100.00;99195.81;5040161;28;20576;-70
2023/01/09 03:15:06;;;;;;;12.23;6.77;;;;;;;4.02;100.00;99191.41;5042391;28;20533;-70
2023/01/09 03:17:38;;;;;;;11.73;6.90;;;;;;;4.04;100.00;99187.91;5044040;28;20204;-70
2023/01/09 03:20:12;;;;;;;12.13;7.53;;;;;;;4.04;100.00;99185.31;5045528;28;20219;-70
2023/01/09 03:22:39;;;;;;;14.90;6.87;;;;;;;4.11;100.00;99191.19;5038469;28;20202;-70
2023/01/09 03:25:06;;;;;;;12.23;6.67;;;;;;;4.14;100.00;99183.41;5041677;28;20191;-70
2023/01/09 03:27:33;;;;;;;10.40;6.43;;;;;;;4.16;100.00;99192.78;5045394;28;20207;-70
2023/01/09 03:30:00;;;;;;;13.57;7.37;;;;;;;4.17;100.00;99191.06;5038472;28;20215;-70
2023/01/09 03:32:26;;;;;;;12.53;6.30;;;;;;;4.16;100.00;99192.78;5044249;28;20196;-70
2023/01/09 03:34:54;;;;;;;10.03;5.70;;;;;;;4.20;100.00;99193.56;5057094;28;20208;-70
2023/01/09 03:37:20;;;;;;;9.70;5.80;;;;;;;4.23;100.00;99187.50;5056877;28;20192;-70
2023/01/09 03:39:47;;;;;;;10.47;6.00;;;;;;;4.24;100.00;99186.59;5047004;28;20442;-70
2023/01/09 03:42:13;;;;;;;12.80;6.33;;;;;;;4.24;100.00;99186.59;5029391;28;20192;-70
2023/01/09 03:44:39;;;;;;;10.23;6.03;;;;;;;4.24;100.00;99176.28;5046116;28;20215;-70
2023/01/09 03:47:06;;;;;;;11.43;6.00;;;;;;;4.25;100.00;99181.41;5046637;28;20192;-70
2023/01/09 03:49:32;;;;;;;11.07;5.93;;;;;;;4.25;100.00;99168.50;5045425;28;20227;-70
2023/01/09 03:52:00;;;;;;;10.23;6.17;;;;;;;4.27;100.00;99166.72;5045864;28;20213;-70
2023/01/09 03:54:27;;;;;;;10.17;5.53;;;;;;;4.25;100.00;99165.91;5048786;28;20595;-70
2023/01/09 03:56:54;;;;;;;11.40;6.30;;;;;;;4.28;100.00;99157.28;5059243;28;20229;-70
2023/01/09 03:59:20;;;;;;;10.70;5.47;;;;;;;4.29;100.00;99152.09;5068368;28;20203;-70
2023/01/09 04:01:46;;;;;;;9.30;5.53;;;;;;;4.30;100.00;99155.50;5064777;28;20199;-70
2023/01/09 04:04:13;;;;;;;9.67;5.33;;;;;;;4.30;100.00;99153.75;5065822;28;20205;-70
2023/01/09 04:06:39;;;;;;;8.83;4.57;;;;;;;4.28;100.00;99154.69;5059522;28;20210;-70
2023/01/09 04:09:07;;;;;;;10.80;5.47;;;;;;;4.30;100.00;99146.00;5060760;28;20229;-70
2023/01/09 04:11:33;;;;;;;10.47;5.67;;;;;;;4.29;100.00;99140.88;5063446;28;20187;-70
2023/01/09 04:14:00;;;;;;;12.43;6.13;;;;;;;4.29;100.00;99143.47;5048625;28;20206;-70
2023/01/09 04:16:26;;;;;;;11.20;5.40;;;;;;;4.30;100.00;99138.28;5050895;28;20202;-70
2023/01/09 04:18:52;;;;;;;8.80;5.43;;;;;;;4.31;100.00;99149.44;5039532;28;20543;-70
2023/01/09 04:21:20;;;;;;;11.87;5.70;;;;;;;4.31;100.00;99139.13;5041802;28;20203;-70
2023/01/09 04:23:46;;;;;;;9.40;5.90;;;;;;;4.29;100.00;99146.91;5041337;28;20725;-70
2023/01/09 04:26:14;;;;;;;10.03;5.97;;;;;;;4.29;100.00;99148.63;5017396;28;20211;-70
2023/01/09 04:28:40;;;;;;;13.33;6.43;;;;;;;4.29;100.00;99146.91;5039848;28;20215;-70
2023/01/09 04:31:07;;;;;;;9.07;5.63;;;;;;;4.29;100.00;99146.91;5044948;28;20191;-70
2023/01/09 04:33:33;;;;;;;8.60;5.33;;;;;;;4.29;100.00;99141.75;5040640;28;20500;-70
2023/01/09 04:35:59;;;;;;;9.13;5.40;;;;;;;4.29;100.00;99151.22;5041525;28;20228;-70
2023/01/09 04:38:26;;;;;;;9.77;5.50;;;;;;;4.28;100.00;99152.94;5043934;28;20197;-70
2023/01/09 04:40:53;;;;;;;11.60;5.90;;;;;;;4.28;100.00;99150.38;5037673;28;20311;-70
2023/01/09 04:43:21;;;;;;;11.10;5.77;;;;;;;4.29;100.00;99153.78;5027273;28;20210;-70
2023/01/09 04:45:48;;;;;;;10.60;5.93;;;;;;;4.31;100.00;99147.72;5043546;28;20667;-70
2023/01/09 04:48:14;;;;;;;9.27;6.20;;;;;;;4.31;100.00;99147.72;5023569;28;20756;-72
2023/01/09 04:50:40;;;;;;;9.13;5.37;;;;;;;4.33;100.00;99142.53;5043956;28;20231;-72
2023/01/09 04:53:07;;;;;;;10.60;5.67;;;;;;;4.33;100.00;99143.38;5037302;28;20636;-72
2023/01/09 04:55:33;;;;;;;10.40;6.03;;;;;;;4.33;100.00;99138.22;5038863;28;20694;-72
2023/01/09 04:58:03;;;;;;;10.17;6.10;;;;;;;4.33;100.00;99138.22;5043723;28;20197;-72
2023/01/09 05:00:30;;;;;;;12.23;6.00;;;;;;;4.34;100.00;99139.91;5043095;28;20595;-69
2023/01/09 05:02:57;;;;;;;13.43;6.97;;;;;;;4.31;100.00;99134.81;5037957;28;20201;-71
2023/01/09 05:05:23;;;;;;;9.00;5.50;;;;;;;4.30;100.00;99135.69;5041932;28;20203;-71
2023/01/09 05:07:50;;;;;;;9.57;5.30;;;;;;;4.30;100.00;99129.69;5026715;28;20203;-72
2023/01/09 05:10:16;;;;;;;10.13;5.93;;;;;;;4.30;100.00;99127.97;5039849;28;20226;-70
2023/01/09 05:12:43;;;;;;;11.20;5.80;;;;;;;4.29;100.00;99128.84;5025862;28;20203;-70
2023/01/09 05:15:10;;;;;;;9.10;5.83;;;;;;;4.28;100.00;99127.16;5028237;28;20480;-71
2023/01/09 05:17:42;;;;;;;12.13;5.80;;;;;;;4.26;100.00;99126.34;5044639;28;20487;-72
2023/01/09 05:20:10;;;;;;;10.00;5.80;;;;;;;4.26;100.00;99128.09;5040826;28;20215;-71
2023/01/09 05:22:36;;;;;;;8.53;5.37;;;;;;;4.23;100.00;99126.41;5026086;28;20203;-70
2023/01/09 05:25:02;;;;;;;12.20;6.03;;;;;;;4.21;100.00;99117.88;5043697;28;20546;-72
2023/01/09 05:27:29;;;;;;;9.93;6.20;;;;;;;4.21;100.00;99132.50;5045231;28;20198;-70
2023/01/09 05:29:55;;;;;;;10.07;6.43;;;;;;;4.20;100.00;99113.56;5037910;28;20222;-72
2023/01/09 05:32:21;;;;;;;11.73;5.50;;;;;;;4.20;100.00;99105.00;5042779;28;20203;-70
2023/01/09 05:34:49;;;;;;;10.13;5.97;;;;;;;4.19;100.00;99106.75;5041148;28;20192;-71
2023/01/09 05:37:16;;;;;;;10.80;6.47;;;;;;;4.17;100.00;99108.50;5035102;28;20191;-72
2023/01/09 05:39:42;;;;;;;9.37;6.03;;;;;;;4.16;100.00;99101.66;5097817;23;20677;-72
2023/01/09 05:42:08;;;;;;;10.67;6.70;;;;;;;4.16;100.00;99101.66;5036293;28;20686;-73
2023/01/09 05:44:35;;;;;;;9.90;6.43;;;;;;;4.13;100.00;99107.75;5040744;28;20214;-73
2023/01/09 05:47:02;;;;;;;12.63;6.80;;;;;;;4.13;100.00;99102.59;5038766;28;20543;-74
2023/01/09 05:49:28;;;;;;;9.80;6.30;;;;;;;4.12;100.00;99108.63;5041285;28;20227;-74
2023/01/09 05:51:56;;;;;;;10.43;6.27;;;;;;;4.11;100.00;99088.84;5039256;28;20551;-74
2023/01/09 05:54:23;;;;;;;15.37;6.97;;;;;;;4.10;100.00;99088.91;5028146;28;20203;-73
2023/01/09 05:56:49;;;;;;;10.83;6.40;;;;;;;4.10;100.00;99083.75;5037915;28;20600;-73
2023/01/09 05:59:16;;;;;;;11.83;6.27;;;;;;;4.08;100.00;99080.34;5039502;28;20203;-73
2023/01/09 06:01:43;;;;;;;10.90;6.30;;;;;;;4.07;100.00;99094.13;5043836;28;20207;-72
2023/01/09 06:04:09;;;;;;;11.83;6.63;;;;;;;4.07;100.00;99086.41;5039276;28;20207;-71
2023/01/09 06:06:35;;;;;;;12.23;6.80;;;;;;;4.06;100.00;99075.22;5036822;28;20206;-74
2023/01/09 06:09:03;;;;;;;12.33;7.10;;;;;;;4.06;100.00;99079.53;5038346;28;20215;-72
2023/01/09 06:11:30;;;;;;;12.33;6.67;;;;;;;4.05;100.00;99077.84;5044985;28;20569;-73
2023/01/09 06:13:56;;;;;;;13.17;7.23;;;;;;;4.06;100.00;99076.97;5043624;28;20563;-73
2023/01/09 06:16:22;;;;;;;11.33;6.93;;;;;;;4.06;100.00;99077.78;5051374;28;20195;-72
2023/01/09 06:18:49;;;;;;;10.93;6.60;;;;;;;4.05;100.00;99070.13;5040068;28;20207;-73
2023/01/09 06:21:15;;;;;;;11.53;7.10;;;;;;;4.04;100.00;99064.09;5045065;28;21065;-73
2023/01/09 06:23:42;;;;;;;13.87;6.63;;;;;;;4.05;100.00;99067.53;5041714;28;20200;-73
2023/01/09 06:26:10;;;;;;;12.87;7.17;;;;;;;4.06;100.00;99059.75;5040877;28;20210;-72
2023/01/09 06:28:36;;;;;;;11.50;6.40;;;;;;;4.04;100.00;99061.50;5045631;28;20711;-73
2023/01/09 06:31:04;;;;;;;13.57;7.20;;;;;;;4.05;100.00;99060.63;5047382;28;20485;-73
2023/01/09 06:33:30;;;;;;;13.60;7.10;;;;;;;4.05;100.00;99063.22;5043640;28;20199;-73
2023/01/09 06:35:57;;;;;;;11.57;7.10;;;;;;;4.05;100.00;99046.91;5045813;28;20564;-73
2023/01/09 06:38:23;;;;;;;13.63;7.43;;;;;;;4.06;100.00;99043.44;5043152;28;20213;-72
2023/01/09 06:40:50;;;;;;;12.30;6.97;;;;;;;4.06;100.00;99039.09;5043976;28;20242;-73
2023/01/09 06:43:17;;;;;;;13.20;7.50;;;;;;;4.07;100.00;99034.81;5046059;28;20199;-73
2023/01/09 06:45:44;;;;;;;12.60;7.03;;;;;;;4.09;100.00;99045.94;5041635;28;20192;-72
2023/01/09 06:48:10;;;;;;;12.97;8.73;;;;;;;4.08;100.00;99039.94;5037689;28;20685;-73
2023/01/09 06:50:37;;;;;;;17.27;11.57;;;;;;;4.08;100.00;99039.94;5045963;28;20234;-74
2023/01/09 06:53:04;;;;;;;19.70;11.93;;;;;;;4.10;100.00;99048.47;5046836;28;20461;-72
2023/01/09 06:55:30;;;;;;;18.13;11.80;;;;;;;4.09;100.00;99051.94;5043318;28;20290;-72
2023/01/09 06:57:56;;;;;;;20.00;11.70;;;;;;;4.09;100.00;99046.78;5038723;28;20199;-74
2023/01/09 07:00:26;;;;;;;18.90;11.53;;;;;;;4.09;100.00;99051.94;5037466;28;20739;-74
2023/01/09 07:02:52;;;;;;;14.33;9.23;;;;;;;4.08;100.00;99064.88;5036028;28;20734;-73
2023/01/09 07:05:18;;;;;;;12.47;7.50;;;;;;;4.09;100.00;99064.00;5043309;28;20196;-71
2023/01/09 07:07:45;;;;;;;13.80;7.50;;;;;;;4.07;100.00;99076.91;5040721;28;20207;-74
2023/01/09 07:10:14;;;;;;;14.07;7.73;;;;;;;4.08;100.00;99080.34;5035639;28;20227;-73
2023/01/09 07:12:41;;;;;;;10.67;6.40;;;;;;;4.05;100.00;99083.84;5044474;28;20204;-73
2023/01/09 07:15:08;;;;;;;10.97;6.80;;;;;;;4.06;100.00;99084.69;5046548;28;20207;-73
2023/01/09 07:17:36;;;;;;;11.53;7.43;;;;;;;4.05;100.00;99090.75;5044518;28;20214;-73
2023/01/09 07:20:04;;;;;;;12.57;7.13;;;;;;;4.04;100.00;99100.19;5038944;28;20233;-74
2023/01/09 07:22:30;;;;;;;12.93;6.83;;;;;;;4.04;100.00;99094.22;5043607;28;20638;-73
2023/01/09 07:24:58;;;;;;;14.60;7.67;;;;;;;4.03;100.00;99092.50;5043955;28;20418;-72
2023/01/09 07:27:24;;;;;;;11.50;6.80;;;;;;;4.04;100.00;99100.19;5046274;28;20199;-74
2023/01/09 07:29:52;;;;;;;14.43;8.13;;;;;;;4.04;100.00;99094.22;5031797;28;20223;-74
2023/01/09 07:32:19;;;;;;;15.90;7.73;;;;;;;4.02;100.00;99101.97;5045970;28;20238;-73
2023/01/09 07:34:47;;;;;;;22.20;13.57;;;;;;;4.03;100.00;99106.25;5028841;28;20642;-73
2023/01/09 07:37:14;;;;;;;18.60;12.40;;;;;;;4.04;100.00;99099.38;5046529;28;20267;-72
2023/01/09 07:39:40;;;;;;;19.83;14.23;;;;;;;4.06;100.00;99095.84;5043212;28;20225;-74
2023/01/09 07:42:07;;;;;;;20.10;13.33;;;;;;;4.05;100.00;99091.59;5047093;28;20196;-74
2023/01/09 07:44:33;;;;;;;20.47;12.47;;;;;;;4.07;100.00;99094.13;5043216;28;20482;-74
2023/01/09 07:47:02;;;;;;;18.73;12.13;;;;;;;4.07;100.00;99088.97;5045721;28;20202;-72
2023/01/09 07:49:28;;;;;;;15.40;9.03;;;;;;;4.07;100.00;99091.56;5045926;28;20223;-72
2023/01/09 07:51:56;;;;;;;20.77;13.33;;;;;;;4.08;100.00;99095.81;5051572;28;20576;-73
2023/01/09 07:54:22;;;;;;;22.67;14.13;;;;;;;4.08;100.00;99099.25;5047179;28;20339;-74
2023/01/09 07:56:49;;;;;;;20.60;11.47;;;;;;;4.08;100.00;99093.22;5043904;28;20199;-74
2023/01/09 07:59:16;;;;;;;20.60;10.27;;;;;;;4.10;100.00;99105.22;5047241;28;20199;-73
2023/01/09 08:01:42;;;;;;;19.30;10.60;;;;;;;4.12;100.00;99106.03;5040965;28;20203;-70
2023/01/09 08:04:09;;;;;;;16.93;10.17;;;;;;;4.12;100.00;99102.63;5039703;28;20261;-74
2023/01/09 08:06:36;;;;;;;18.73;11.10;;;;;;;4.13;100.00;99101.72;5042117;28;20195;-73
2023/01/09 08:09:03;;;;;;;18.93;10.37;;;;;;;4.13;100.00;99102.59;5044686;28;20225;-73
2023/01/09 08:11:31;;;;;;;26.80;16.47;;;;;;;4.15;100.00;99105.97;5042065;28;20209;-73
2023/01/09 08:13:57;;;;;;;19.87;11.43;;;;;;;4.15;100.00;99098.22;5043804;28;20257;-73
2023/01/09 08:16:23;;;;;;;18.63;11.37;;;;;;;4.15;100.00;99103.38;5042661;28;20459;-72
2023/01/09 08:18:50;;;;;;;21.20;14.53;;;;;;;4.17;100.00;99095.63;5041557;28;20199;-74
2023/01/09 08:21:16;;;;;;;21.30;13.13;;;;;;;4.18;100.00;99094.72;5040339;28;20215;-73
2023/01/09 08:23:44;;;;;;;20.77;12.87;;;;;;;4.20;100.00;99102.41;5041055;28;20215;-73
2023/01/09 08:26:12;;;;;;;16.10;9.30;;;;;;;4.20;100.00;99098.09;5041230;28;20223;-74
2023/01/09 08:28:38;;;;;;;14.00;8.97;;;;;;;4.22;100.00;99098.06;5042286;28;20556;-74
2023/01/09 08:31:04;;;;;;;18.83;9.90;;;;;;;4.22;100.00;99093.78;5044192;28;20261;-73
2023/01/09 08:33:31;;;;;;;16.60;9.87;;;;;;;4.25;100.00;99098.00;5044896;28;20230;-75
2023/01/09 08:35:57;;;;;;;19.47;9.60;;;;;;;4.24;100.00;99102.31;5044074;28;20211;-75
2023/01/09 08:38:24;;;;;;;16.47;8.67;;;;;;;4.26;100.00;99097.13;5046530;28;20547;-74
2023/01/09 08:40:50;;;;;;;18.70;9.20;;;;;;;4.28;100.00;99095.34;5046930;28;20231;-75
2023/01/09 08:48:46;;;;;;;17.07;9.13;;;;;;;4.38;100.00;99096.81;5046655;28;20525;-75
2023/01/09 08:51:13;;;;;;;19.17;9.67;;;;;;;4.42;100.00;99098.44;5041145;28;20321;-75
2023/01/09 08:53:40;;;;;;;20.30;10.30;;;;;;;4.45;100.00;99100.06;5047349;28;20214;-75
2023/01/09 08:56:06;;;;;;;14.33;8.33;;;;;;;4.46;100.00;99100.03;5047881;28;20658;-74
2023/01/09 08:58:34;;;;;;;16.43;8.60;;;;;;;4.47;100.00;99108.66;5046081;28;20211;-74
2023/01/09 09:01:05;;;;;;;20.63;9.13;;;;;;;4.51;100.00;99102.50;5048251;28;20211;-72
2023/01/09 09:03:31;;;;;;;17.20;8.83;;;;;;;4.52;100.00;99099.03;5046618;28;20203;-75
2023/01/09 09:05:57;;;;;;;15.33;8.80;;;;;;;4.53;100.00;99111.91;5039134;28;20214;-75
2023/01/09 09:08:24;;;;;;;18.37;9.23;;;;;;;4.53;100.00;99111.06;5045980;28;20202;-75
2023/01/09 09:10:50;;;;;;;16.47;9.53;;;;;;;4.54;100.00;99092.13;5040224;28;20239;-75
2023/01/09 09:13:16;;;;;;;19.37;10.13;;;;;;;4.58;100.00;99101.47;5046452;28;20778;-76
2023/01/09 09:15:44;;;;;;;17.90;10.53;;;;;;;4.61;100.00;99096.22;5040190;28;20215;-72
2023/01/09 09:18:11;;;;;;;19.30;10.07;;;;;;;4.66;100.00;99098.66;5046468;28;20214;-75
2023/01/09 09:20:38;;;;;;;18.43;9.47;;;;;;;4.68;100.00;99108.09;5043113;28;20225;-73
2023/01/09 09:23:06;;;;;;;20.40;11.50;;;;;;;4.77;100.00;99107.00;5046294;28;20207;-75
2023/01/09 09:25:37;;;;;;;17.00;8.77;;;;;;;4.82;100.00;99101.69;5048093;28;20206;-76
2023/01/09 09:28:03;;;;;;;16.23;9.13;;;;;;;4.89;100.00;99108.38;5045493;28;20195;-75
2023/01/09 09:30:29;;;;;;;17.70;9.90;;;;;;;4.92;100.00;99113.47;5045767;28;20603;-74
2023/01/09 09:32:57;;;;;;;17.77;8.90;;;;;;;4.96;100.00;99120.25;5045318;28;20575;-74
2023/01/09 09:35:24;;;;;;;14.57;8.70;;;;;;;5.04;100.00;99118.31;5038576;28;20195;-73
2023/01/09 09:37:55;;;;;;;16.23;9.07;;;;;;;5.13;100.00;99117.19;5041340;28;20211;-73
2023/01/09 09:40:34;;;;;;;19.43;9.63;;;;;;;5.21;100.00;99117.84;5043137;28;20249;-76
2023/01/09 09:46:08;;;;;;;16.03;8.57;;;;;;;5.31;100.00;99113.25;5042452;28;20250;-76
2023/01/09 09:48:39;;;;;;;17.40;9.97;;;;;;;5.37;100.00;99123.41;5043824;28;20202;-75
2023/01/09 09:51:31;;;;;;;14.10;8.70;;;;;;;5.40;100.00;99125.06;5044683;28;20571;-75
2023/01/09 09:54:00;;;;;;;15.07;9.07;;;;;;;5.38;100.00;99125.13;5021442;28;20553;-74
2023/01/09 09:56:30;;;;;;;13.03;8.40;;;;;;;5.42;100.00;99124.13;5036919;28;20203;-74
2023/01/09 09:59:01;;;;;;;13.17;8.23;;;;;;;5.45;100.00;99118.00;5045722;28;20207;-75
2023/01/09 10:01:37;;;;;;;14.23;8.13;;;;;;;5.43;100.00;99123.22;5046874;28;20227;-75
2023/01/09 10:04:11;;;;;;;13.30;8.13;;;;;;;5.45;100.00;99123.19;5044726;28;20206;-75
2023/01/09 10:06:42;;;;;;;12.30;8.03;;;;;;;5.47;100.00;99126.56;5041288;28;20274;-75
2023/01/09 10:09:17;;;;;;;13.17;7.03;;;;;;;5.48;100.00;99126.53;5046419;28;20234;-75
2023/01/09 10:11:49;;;;;;;12.70;7.77;;;;;;;5.50;100.00;99123.91;5045329;28;20206;-74
2023/01/09 10:14:15;;;;;;;14.63;7.77;;;;;;;5.53;100.00;99125.56;5027065;28;20199;-75
2023/01/09 10:16:59;;;;;;;12.67;7.57;;;;;;;5.55;100.00;99128.94;5042828;28;20208;-72
2023/01/09 10:19:44;;;;;;;12.60;7.23;;;;;;;5.56;100.00;99125.47;5044384;28;20233;-72
2023/01/09 10:22:22;;;;;;;11.57;7.30;;;;;;;5.58;100.00;99136.63;5045856;28;20567;-76
2023/01/09 10:25:01;;;;;;;10.63;6.47;;;;;;;5.60;100.00;99137.41;5043523;28;20199;-74
2023/01/09 10:27:40;;;;;;;9.47;6.17;;;;;;;5.61;100.00;99134.78;5043355;28;20592;-74
2023/01/09 10:30:23;;;;;;;11.07;6.67;;;;;;;5.64;100.00;99128.66;5045109;28;20242;-75
2023/01/09 10:33:01;;;;;;;11.13;6.53;;;;;;;5.69;100.00;99142.31;5043815;28;20206;-74
2023/01/09 10:36:07;;;;;;;8.83;5.80;;;;;;;5.75;100.00;99128.34;5046226;28;20203;-75
2023/01/09 10:38:39;;;;;;;10.27;6.47;;;;;;;5.78;100.00;99123.94;5028115;28;20235;-75
2023/01/09 10:41:13;;;;;;;10.30;6.13;;;;;;;5.82;100.00;99122.97;5044475;28;20235;-76
2023/01/09 10:43:45;;;;;;;8.30;5.43;;;;;;;5.88;100.00;99125.34;5043021;28;20324;-75
2023/01/09 10:46:18;;;;;;;8.07;5.30;;;;;;;5.97;100.00;99123.41;5042033;28;20208;-74
2023/01/09 10:48:49;;;;;;;8.33;5.70;;;;;;;6.02;100.00;99124.94;5046067;28;20208;-72
2023/01/09 10:51:20;;;;;;;8.57;5.53;;;;;;;6.06;100.00;99123.94;5034541;28;20270;-76
2023/01/09 10:53:51;;;;;;;8.43;5.37;;;;;;;6.12;100.00;99137.59;5039807;28;20485;-76
2023/01/09 10:56:22;;;;;;;9.23;5.40;;;;;;;6.12;100.00;99145.34;5042954;28;20201;-75
2023/01/09 10:58:50;;;;;;;10.90;5.53;;;;;;;6.12;100.00;99153.97;5046323;28;20232;-74
2023/01/09 11:01:25;;;;;;;9.30;5.77;;;;;;;6.15;100.00;99163.38;5049320;28;20255;-74
2023/01/09 11:03:52;;;;;;;7.27;4.73;;;;;;;6.16;100.00;99163.34;5045248;28;20234;-75
2023/01/09 11:06:24;;;;;;;9.53;5.50;;;;;;;6.18;100.00;99165.88;5045013;28;20196;-76
2023/01/09 11:08:55;;;;;;;8.03;5.40;;;;;;;6.20;100.00;99161.50;5042346;28;20627;-75
2023/01/09 11:11:33;;;;;;;9.03;5.43;;;;;;;6.21;100.00;99171.81;5045512;28;20217;-76
2023/01/09 11:14:13;;;;;;;7.57;5.13;;;;;;;6.28;100.00;99172.47;5043441;28;20215;-75
2023/01/09 11:16:51;;;;;;;8.87;5.60;;;;;;;6.33;100.00;99165.41;5047414;28;20271;-74
2023/01/09 11:19:17;;;;;;;7.40;4.90;;;;;;;6.37;100.00;99172.16;5045320;28;20199;-75
2023/01/09 11:21:45;;;;;;;10.23;5.87;;;;;;;6.41;100.00;99173.75;5043905;28;20549;-73
2023/01/09 11:24:26;;;;;;;5.20;3.90;;;;;;;6.40;100.00;99177.25;5046386;28;20209;-74
2023/01/09 11:27:00;;;;;;;7.73;4.30;;;;;;;6.43;100.00;99178.88;5045343;28;20207;-75
2023/01/09 11:29:27;;;;;;;5.90;3.97;;;;;;;6.47;100.00;99184.81;5047527;28;20304;-76
2023/01/09 11:31:56;;;;;;;6.60;3.83;;;;;;;6.50;100.00;99188.13;5047117;28;20295;-75
2023/01/09 11:34:25;;;;;;;5.80;3.87;;;;;;;6.55;100.00;99190.59;5047168;28;20203;-76
2023/01/09 11:37:02;;;;;;;5.03;3.57;;;;;;;6.56;100.00;99190.53;5047116;28;20211;-75
2023/01/09 11:39:30;;;;;;;5.73;4.23;;;;;;;6.60;100.00;99189.53;5044048;28;20694;-75
2023/01/09 11:41:59;;;;;;;5.40;3.30;;;;;;;6.62;100.00;99190.34;5027857;28;20218;-75
2023/01/09 11:44:28;;;;;;;4.73;3.07;;;;;;;6.60;100.00;99194.72;5027904;28;20217;-76
2023/01/09 11:46:54;;;;;;;8.30;3.60;;;;;;;6.64;100.00;99198.06;5027460;28;20675;-73